Portada
METAR-TAF:

METAR-TAF

Aeroports :

Vladivostok, Rússia

latitud: 43-07N, longitud: 131-56E, altitud: 184 m

Observació

L'informe es va fer fa 20 minuts, a les 19:00 UTC
Vent 2 kt amb direcció variable
Temperatura 4°C
Humitat 81%
Pressió 1018 hPa
Visibilitat 10 km o més

METAR: UHWW 151900Z VRB01MPS 9999 NSC 04/01 Q1018 R25L/0///70 NOSIG RMK QFE762

Hora: 05:20 (19:20 UTC)

Pronòstic

L'informe es va fer fa 2 hores i 20 minuts, a les 17:00 UTC
Pronòstic vàlid del 15 a les 18 UTC al 16 a les 18 UTC
Vent 6 kt del Nord
Visibilitat 10 km o més
Núvols disperses a una alçada de 3000 ft
Temporalment
l' 15 a les 18 UTC al 16 a les 10 UTC
Vent 14 kt del Nord amb ràfegues de 23 kt
Visibilitat: 4000 m
Cel ennuvolat a una alçada de 1100 ft
Cel ennuvolat a una alçada de 2000 ft, Cumulonimbus.
xàfecs de pluja

TAF: UHWW 151700Z 1518/1618 35003MPS 9999 SCT030 TEMPO 1518/1610 35007G12MPS 4000 -SHRA BKN011 BKN020CB

Observacions i pronòstics meteorològics de més de 4000 aeroports (METAR i TAF).

Les estacions disponibles són els punts grocs i vermells al mapa.

Posi el ratolí al punt desitjat per veure el nom de l'estació.

Feu clic per veure les observacions i els pronòstics meteorològics.

Per canviar el mapa: feu clic els botons verds amb una creu de color negre per apropar; al botó verd amb un guió per allunyar la imatge; o en les fletxes verdes per a mapes adjacents.


METAR-TAF: